createdAt,value
2022-12-15T00:00:34.703Z,99044.84
2022-12-15T00:03:26.242Z,99055.88
2022-12-15T00:06:12.352Z,99056.56
2022-12-15T00:08:59.558Z,99047.06
2022-12-15T00:11:45.823Z,99055.44
2022-12-15T00:14:31.621Z,99056.31
2022-12-15T00:17:17.644Z,99061.41
2022-12-15T00:20:05.115Z,99056.31
2022-12-15T00:22:51.088Z,99063.94
2022-12-15T00:25:37.189Z,99068.03
2022-12-15T00:28:23.700Z,99070.56
2022-12-15T00:31:09.704Z,99061.19
2022-12-15T00:33:55.952Z,99070.44
2022-12-15T00:36:43.361Z,99074.66
2022-12-15T00:39:11.855Z,99070.19
2022-12-15T00:41:40.311Z,99074.66
2022-12-15T00:44:08.637Z,99083.28
2022-12-15T00:46:54.471Z,99077.06
2022-12-15T00:49:41.198Z,99079.72
2022-12-15T00:52:28.949Z,99073.63
2022-12-15T00:55:15.097Z,99074.44
2022-12-15T00:58:01.164Z,99070.88
2022-12-15T01:00:47.232Z,99075.94
2022-12-15T01:03:36.683Z,99071.63
2022-12-15T01:06:25.377Z,99073.28
2022-12-15T01:09:13.270Z,99087.63
2022-12-15T01:12:00.800Z,99090.09
2022-12-15T01:14:47.313Z,99081.44
2022-12-15T01:17:33.580Z,99084.75
2022-12-15T01:20:15.612Z,99087.16
2022-12-15T01:22:44.498Z,99085.38
2022-12-15T01:25:15.591Z,99088.94
2022-12-15T01:27:44.940Z,99088.94
2022-12-15T01:30:16.507Z,99086.53
2022-12-15T01:32:46.301Z,99086.41
2022-12-15T01:35:15.150Z,99102.53
2022-12-15T01:37:43.524Z,99104.19
2022-12-15T01:40:34.921Z,99106.72
2022-12-15T01:43:03.516Z,99101.50
2022-12-15T01:45:58.450Z,99096.44
2022-12-15T01:48:36.429Z,99097.22
2022-12-15T01:51:15.677Z,99109.03
2022-12-15T01:53:50.994Z,99109.03
2022-12-15T01:56:25.321Z,99108.25
2022-12-15T01:58:58.137Z,99112.34
2022-12-15T02:01:26.788Z,99118.31
2022-12-15T02:03:55.401Z,99124.34
2022-12-15T02:06:25.830Z,99129.34
2022-12-15T02:08:57.028Z,99123.25
2022-12-15T02:11:49.136Z,99132.78
2022-12-15T02:14:29.731Z,99135.94
2022-12-15T02:17:17.354Z,99133.53
2022-12-15T02:20:38.886Z,99131.63
2022-12-15T02:23:40.920Z,99134.84
2022-12-15T02:26:46.142Z,99145.88
2022-12-15T02:29:40.114Z,99144.09
2022-12-15T02:32:14.380Z,99149.19
2022-12-15T02:34:48.488Z,99147.53
2022-12-15T02:37:23.271Z,99153.50
2022-12-15T02:39:51.749Z,99146.72
2022-12-15T02:42:20.537Z,99147.53
2022-12-15T02:44:52.997Z,99153.50
2022-12-15T02:47:34.207Z,99150.97
2022-12-15T02:50:32.614Z,99149.19
2022-12-15T02:53:23.603Z,99158.44
2022-12-15T02:56:02.090Z,99172.03
2022-12-15T02:58:41.057Z,99168.59
2022-12-15T03:01:15.250Z,99158.31
2022-12-15T03:03:47.292Z,99167.59
2022-12-15T03:06:16.607Z,99170.13
2022-12-15T03:08:44.978Z,99166.59
2022-12-15T03:11:13.430Z,99171.78
2022-12-15T03:13:41.814Z,99175.06
2022-12-15T03:16:10.353Z,99180.94
2022-12-15T03:18:39.895Z,99189.31
2022-12-15T03:21:09.858Z,99186.03
2022-12-15T03:23:38.871Z,99193.50
2022-12-15T03:26:07.616Z,99191.09
2022-12-15T03:28:36.040Z,99194.38
2022-12-15T03:31:04.612Z,99189.31
2022-12-15T03:33:35.295Z,99191.72
2022-12-15T03:36:03.869Z,99186.53
2022-12-15T03:38:33.649Z,99189.06
2022-12-15T03:41:02.157Z,99201.00
2022-12-15T03:43:31.079Z,99201.00
2022-12-15T03:45:59.683Z,99194.13
2022-12-15T03:48:28.489Z,99196.69
2022-12-15T03:50:56.873Z,99199.22
2022-12-15T03:53:25.205Z,99212.69
2022-12-15T03:55:54.921Z,99209.38
2022-12-15T03:58:23.284Z,99206.72
2022-12-15T04:00:52.065Z,99206.81
2022-12-15T04:03:21.743Z,99197.47
2022-12-15T04:05:50.445Z,99204.28
2022-12-15T04:08:19.122Z,99202.53
2022-12-15T04:10:47.628Z,99196.56
2022-12-15T04:13:17.631Z,99204.19
2022-12-15T04:15:46.229Z,99205.94
2022-12-15T04:18:14.872Z,99197.34
2022-12-15T04:20:43.194Z,99194.81
2022-12-15T04:23:11.645Z,99187.94
2022-12-15T04:25:57.492Z,99186.16
2022-12-15T04:28:44.965Z,99186.94
2022-12-15T04:31:33.948Z,99186.84
2022-12-15T04:34:23.837Z,99193.44
2022-12-15T04:37:12.192Z,99196.72
2022-12-15T04:40:02.761Z,99193.16
2022-12-15T04:42:50.602Z,99194.06
2022-12-15T04:45:41.371Z,99197.38
2022-12-15T04:48:28.303Z,99203.84
2022-12-15T04:51:15.054Z,99207.28
2022-12-15T04:54:02.165Z,99206.38
2022-12-15T04:56:49.991Z,99203.84
2022-12-15T04:59:36.191Z,99202.06
2022-12-15T05:02:23.862Z,99214.00
2022-12-15T05:05:10.124Z,99217.28
2022-12-15T05:07:56.084Z,99214.75
2022-12-15T05:10:42.184Z,99207.94
2022-12-15T05:13:28.488Z,99214.53
2022-12-15T05:16:14.903Z,99217.22
2022-12-15T05:19:02.592Z,99225.56
2022-12-15T05:21:48.449Z,99226.47
2022-12-15T05:24:34.494Z,99226.47
2022-12-15T05:27:20.480Z,99232.31
2022-12-15T05:30:06.488Z,99224.69
2022-12-15T05:32:35.128Z,99235.59
2022-12-15T05:35:06.567Z,99234.84
2022-12-15T05:37:35.110Z,99243.47
2022-12-15T05:40:03.455Z,99240.94
2022-12-15T05:42:31.853Z,99240.94
2022-12-15T05:45:00.437Z,99240.13
2022-12-15T05:47:29.270Z,99245.22
2022-12-15T05:49:57.892Z,99229.97
2022-12-15T05:52:28.001Z,99236.84
2022-12-15T05:54:56.448Z,99245.47
2022-12-15T05:57:24.959Z,99246.09
2022-12-15T05:59:53.397Z,99253.84
2022-12-15T06:02:21.955Z,99255.63
2022-12-15T06:04:50.730Z,99252.97
2022-12-15T06:07:19.216Z,99268.31
2022-12-15T06:09:49.243Z,99272.38
2022-12-15T06:12:17.946Z,99276.56
2022-12-15T06:14:46.419Z,99265.50
2022-12-15T06:17:18.264Z,99258.69
2022-12-15T06:19:46.693Z,99267.06
2022-12-15T06:22:15.135Z,99260.22
2022-12-15T06:24:43.603Z,99263.50
2022-12-15T06:27:13.654Z,99262.75
2022-12-15T06:29:42.033Z,99263.50
2022-12-15T06:32:10.475Z,99265.91
2022-12-15T06:34:38.852Z,99270.97
2022-12-15T06:37:07.348Z,99274.31
2022-12-15T06:39:35.721Z,99277.59
2022-12-15T06:42:04.497Z,99274.19
2022-12-15T06:44:34.373Z,99269.09
2022-12-15T06:47:03.111Z,99271.66
2022-12-15T06:49:32.031Z,99275.81
2022-12-15T06:52:00.514Z,99277.47
2022-12-15T06:54:28.897Z,99271.50
2022-12-15T06:56:57.727Z,99274.94
2022-12-15T06:59:26.282Z,99274.03
2022-12-15T07:01:56.241Z,99271.38
2022-12-15T07:04:24.908Z,99283.31
2022-12-15T07:06:53.585Z,99294.97
2022-12-15T07:09:22.131Z,99289.91
2022-12-15T07:11:51.357Z,99282.19
2022-12-15T07:14:19.712Z,99284.81
2022-12-15T07:16:48.188Z,99286.59
2022-12-15T07:19:18.909Z,99287.50
2022-12-15T07:21:47.275Z,99284.81
2022-12-15T07:24:15.670Z,99289.13
2022-12-15T07:26:46.027Z,99288.16
2022-12-15T07:29:22.836Z,99294.13
2022-12-15T07:31:51.892Z,99304.25
2022-12-15T07:34:21.944Z,99309.34
2022-12-15T07:36:52.688Z,99303.38
2022-12-15T07:39:21.480Z,99308.44
2022-12-15T07:41:49.993Z,99315.25
2022-12-15T07:44:18.697Z,99313.53
2022-12-15T07:46:49.070Z,99317.69
2022-12-15T07:49:17.821Z,99316.81
2022-12-15T07:51:48.115Z,99321.88
2022-12-15T07:54:17.229Z,99316.81
2022-12-15T07:56:50.235Z,99317.69
2022-12-15T07:59:19.615Z,99323.66
2022-12-15T08:01:48.205Z,99324.44
2022-12-15T08:04:17.509Z,99338.00
2022-12-15T08:06:47.610Z,99337.34
2022-12-15T08:09:16.162Z,99337.34
2022-12-15T08:11:44.713Z,99329.63
2022-12-15T08:14:17.278Z,99333.03
2022-12-15T08:16:46.938Z,99328.75
2022-12-15T08:19:17.932Z,99328.75
2022-12-15T08:21:48.914Z,99339.78
2022-12-15T08:24:19.362Z,99343.97
2022-12-15T08:26:50.185Z,99347.25
2022-12-15T08:29:50.988Z,99349.03
2022-12-15T08:32:08.829Z,99345.72
2022-12-15T08:34:37.458Z,99354.09
2022-12-15T08:37:07.315Z,99344.84
2022-12-15T08:39:36.035Z,99345.72
2022-12-15T08:42:04.834Z,99352.47
2022-12-15T08:44:33.475Z,99349.28
2022-12-15T08:47:01.999Z,99339.13
2022-12-15T08:49:30.407Z,99348.50
2022-12-15T08:51:58.960Z,99347.75
2022-12-15T08:54:28.887Z,99356.34
2022-12-15T08:56:57.390Z,99353.06
2022-12-15T08:59:26.357Z,99357.38
2022-12-15T09:01:54.836Z,99360.06
2022-12-15T09:04:23.906Z,99363.50
2022-12-15T09:06:52.371Z,99366.13
2022-12-15T09:09:23.617Z,99360.44
2022-12-15T09:11:53.762Z,99358.03
2022-12-15T09:14:28.820Z,99352.81
2022-12-15T09:16:57.913Z,99361.56
2022-12-15T09:19:26.794Z,99357.38
2022-12-15T09:21:55.678Z,99354.97
2022-12-15T09:24:33.851Z,99362.72
2022-12-15T09:27:05.261Z,99363.59
2022-12-15T09:29:35.170Z,99376.38
2022-12-15T09:32:05.531Z,99378.16
2022-12-15T09:34:37.768Z,99374.72
2022-12-15T09:37:06.725Z,99381.72
2022-12-15T09:39:35.586Z,99377.41
2022-12-15T09:42:06.189Z,99387.03
2022-12-15T09:44:36.063Z,99401.50
2022-12-15T09:47:18.931Z,99395.91
2022-12-15T09:49:56.595Z,99415.47
2022-12-15T09:52:29.192Z,99424.84
2022-12-15T09:54:59.130Z,99416.47
2022-12-15T09:57:38.504Z,99416.72
2022-12-15T10:03:45.150Z,99423.72
2022-12-15T10:06:20.886Z,99427.16
2022-12-15T10:08:56.474Z,99423.06
2022-12-15T10:11:50.286Z,99427.38
2022-12-15T10:14:30.259Z,99430.94
2022-12-15T10:17:08.545Z,99433.34
2022-12-15T10:19:43.280Z,99430.94
2022-12-15T10:22:19.950Z,99432.06
2022-12-15T10:28:11.528Z,99425.59
2022-12-15T10:30:52.750Z,99421.50
2022-12-15T10:33:25.286Z,99418.22
2022-12-15T10:35:55.490Z,99431.03
2022-12-15T10:38:31.164Z,99430.38
2022-12-15T10:41:03.102Z,99436.63
2022-12-15T10:43:37.426Z,99429.13
2022-12-15T10:46:15.136Z,99422.50
2022-12-15T10:48:48.635Z,99425.19
2022-12-15T10:51:29.049Z,99425.41
2022-12-15T10:54:09.651Z,99428.97
2022-12-15T10:56:50.450Z,99429.09
2022-12-15T10:59:30.191Z,99424.16
2022-12-15T11:02:29.818Z,99420.94
2022-12-15T11:05:00.345Z,99416.00
2022-12-15T11:07:35.927Z,99413.81
2022-12-15T11:10:22.854Z,99418.28
2022-12-15T11:13:10.609Z,99412.41
2022-12-15T11:15:50.950Z,99409.09
2022-12-15T11:18:38.945Z,99409.22
2022-12-15T11:21:13.805Z,99407.72
2022-12-15T11:23:53.239Z,99402.84
2022-12-15T11:26:50.392Z,99401.41
2022-12-15T11:29:29.490Z,99406.63
2022-12-15T11:32:04.787Z,99400.78
2022-12-15T11:34:40.504Z,99400.38
2022-12-15T11:37:43.763Z,99401.50
2022-12-15T11:40:37.663Z,99396.69
2022-12-15T11:46:44.449Z,99403.00
2022-12-15T11:49:50.863Z,99395.50
2022-12-15T11:52:44.031Z,99394.84
2022-12-15T11:55:27.678Z,99391.53
2022-12-15T11:58:38.466Z,99387.47
2022-12-15T12:01:22.094Z,99386.94
2022-12-15T12:04:03.404Z,99379.31
2022-12-15T12:06:39.983Z,99377.00
2022-12-15T12:09:30.147Z,99370.38
2022-12-15T12:12:13.337Z,99377.47
2022-12-15T12:14:52.714Z,99381.91
2022-12-15T12:17:33.897Z,99376.19
2022-12-15T12:20:14.557Z,99371.19
2022-12-15T12:22:55.169Z,99369.66
2022-12-15T12:25:26.398Z,99373.22
2022-12-15T12:27:59.959Z,99370.78
2022-12-15T12:30:35.881Z,99366.69
2022-12-15T12:33:12.437Z,99358.44
2022-12-15T12:35:48.799Z,99363.63
2022-12-15T12:38:25.382Z,99362.84
2022-12-15T12:41:04.150Z,99365.50
2022-12-15T12:43:35.517Z,99368.19
2022-12-15T12:46:14.075Z,99370.19
2022-12-15T12:51:38.499Z,99353.28
2022-12-15T12:54:53.496Z,99353.47
2022-12-15T12:57:36.906Z,99356.91
2022-12-15T13:00:18.593Z,99357.03
2022-12-15T13:02:58.887Z,99351.06
2022-12-15T13:05:34.072Z,99352.84
2022-12-15T13:08:53.287Z,99347.00
2022-12-15T13:11:58.152Z,99337.78
2022-12-15T13:14:46.676Z,99323.53
2022-12-15T13:17:29.243Z,99320.22
2022-12-15T13:20:26.984Z,99312.84
2022-12-15T13:22:58.373Z,99313.75
2022-12-15T13:26:03.456Z,99315.63
2022-12-15T13:28:45.829Z,99313.09
2022-12-15T13:31:49.159Z,99304.66
2022-12-15T13:34:27.962Z,99300.38
2022-12-15T13:37:02.074Z,99295.38
2022-12-15T13:39:59.983Z,99282.00
2022-12-15T13:42:48.214Z,99277.94
2022-12-15T13:45:48.673Z,99279.78
2022-12-15T13:48:31.378Z,99276.59
2022-12-15T13:51:10.770Z,99283.44
2022-12-15T13:53:44.775Z,99279.34
2022-12-15T13:56:50.700Z,99287.00
2022-12-15T13:59:41.110Z,99286.09
2022-12-15T14:02:26.715Z,99292.97
2022-12-15T14:05:16.952Z,99291.31
2022-12-15T14:10:43.577Z,99294.06
2022-12-15T14:13:18.679Z,99280.47
2022-12-15T14:15:52.409Z,99280.56
2022-12-15T14:18:30.161Z,99276.38
2022-12-15T14:20:59.777Z,99266.97
2022-12-15T14:23:31.625Z,99271.28
2022-12-15T14:26:08.033Z,99272.16
2022-12-15T14:28:39.331Z,99262.00
2022-12-15T14:31:13.908Z,99258.69
2022-12-15T14:33:50.791Z,99268.09
2022-12-15T14:36:22.170Z,99261.34
2022-12-15T14:38:55.391Z,99254.69
2022-12-15T14:41:27.105Z,99253.78
2022-12-15T14:46:51.284Z,99246.06
2022-12-15T14:49:23.569Z,99239.31
2022-12-15T14:52:00.087Z,99238.53
2022-12-15T14:54:36.932Z,99245.28
2022-12-15T14:57:16.458Z,99245.19
2022-12-15T14:59:48.569Z,99245.06
2022-12-15T15:02:23.057Z,99241.63
2022-12-15T15:03:03.532Z,99428.66
2022-12-15T15:03:05.150Z,99364.34
2022-12-15T15:03:13.421Z,99397.69
2022-12-15T15:03:14.460Z,99254.69
2022-12-15T15:05:03.138Z,99239.84
2022-12-15T15:07:33.823Z,99236.34
2022-12-15T15:10:03.858Z,99232.00
2022-12-15T15:12:45.901Z,99231.88
2022-12-15T15:15:18.813Z,99238.63
2022-12-15T15:17:52.303Z,99236.84
2022-12-15T15:20:26.819Z,99236.84
2022-12-15T15:23:17.401Z,99251.16
2022-12-15T15:25:51.897Z,99247.59
2022-12-15T15:28:27.150Z,99246.59
2022-12-15T15:30:57.994Z,99249.94
2022-12-15T15:33:27.302Z,99255.78
2022-12-15T15:35:59.536Z,99257.44
2022-12-15T15:38:32.879Z,99259.75
2022-12-15T15:41:04.293Z,99257.00
2022-12-15T15:43:32.920Z,99258.41
2022-12-15T15:46:06.975Z,99255.63
2022-12-15T15:48:39.117Z,99256.38
2022-12-15T15:51:09.202Z,99262.34
2022-12-15T15:53:39.382Z,99257.28
2022-12-15T15:56:12.064Z,99265.91
2022-12-15T15:58:40.723Z,99273.41
2022-12-15T16:01:13.091Z,99268.34
2022-12-15T16:03:42.889Z,99266.56
2022-12-15T16:06:19.015Z,99288.69
2022-12-15T16:08:52.889Z,99287.81
2022-12-15T16:11:22.848Z,99288.56
2022-12-15T16:13:52.044Z,99290.22
2022-12-15T16:16:23.319Z,99288.47
2022-12-15T16:18:51.896Z,99297.75
2022-12-15T16:21:27.516Z,99300.41
2022-12-15T16:23:56.727Z,99308.84
2022-12-15T16:26:31.063Z,99311.38
2022-12-15T16:29:00.625Z,99311.25
2022-12-15T16:31:41.417Z,99310.34
2022-12-15T16:34:10.442Z,99322.06
2022-12-15T16:36:41.221Z,99323.84
2022-12-15T16:39:26.369Z,99328.03
2022-12-15T16:41:56.676Z,99322.06
2022-12-15T16:44:25.659Z,99317.75
2022-12-15T16:46:54.395Z,99332.16
2022-12-15T16:49:23.138Z,99330.47
2022-12-15T16:51:55.164Z,99333.00
2022-12-15T16:54:27.167Z,99338.91
2022-12-15T16:56:58.093Z,99338.00
2022-12-15T16:59:36.239Z,99332.03
2022-12-15T17:02:26.890Z,99340.41
2022-12-15T17:04:55.943Z,99336.88
2022-12-15T17:07:27.918Z,99347.03
2022-12-15T17:09:56.794Z,99340.22
2022-12-15T17:12:25.236Z,99343.50
2022-12-15T17:14:53.938Z,99340.97
2022-12-15T17:17:22.713Z,99340.84
2022-12-15T17:20:27.559Z,99338.31
2022-12-15T17:22:42.072Z,99350.13
2022-12-15T17:25:27.142Z,99351.91
2022-12-15T17:28:11.858Z,99349.25
2022-12-15T17:30:42.995Z,99359.41
2022-12-15T17:33:20.016Z,99351.78
2022-12-15T17:35:51.194Z,99356.88
2022-12-15T17:38:23.641Z,99358.53
2022-12-15T17:40:56.604Z,99368.69
2022-12-15T17:43:35.192Z,99382.19
2022-12-15T17:46:04.282Z,99382.97
2022-12-15T17:48:32.772Z,99385.53
2022-12-15T17:51:01.274Z,99382.97
2022-12-15T17:53:32.126Z,99382.84
2022-12-15T17:56:00.899Z,99392.13
2022-12-15T17:58:29.412Z,99403.19
2022-12-15T18:00:58.084Z,99399.75
2022-12-15T18:03:27.336Z,99407.28
2022-12-15T18:05:55.908Z,99413.13
2022-12-15T18:08:26.634Z,99414.78
2022-12-15T18:10:58.912Z,99408.69
2022-12-15T18:13:34.863Z,99413.91
2022-12-15T18:16:04.044Z,99413.78
2022-12-15T18:18:32.487Z,99413.78
2022-12-15T18:21:06.496Z,99403.50
2022-12-15T18:23:35.348Z,99387.22
2022-12-15T18:26:05.711Z,99393.31
2022-12-15T18:28:36.427Z,99387.34
2022-12-15T18:31:15.183Z,99387.34
2022-12-15T18:33:44.547Z,99385.56
2022-12-15T18:36:13.032Z,99379.50
2022-12-15T18:38:41.512Z,99381.00
2022-12-15T18:41:17.227Z,99374.16
2022-12-15T18:43:47.532Z,99363.75
2022-12-15T18:46:17.422Z,99374.81
2022-12-15T18:48:46.308Z,99372.91
2022-12-15T18:51:19.582Z,99372.91
2022-12-15T18:53:49.176Z,99370.38
2022-12-15T18:56:21.576Z,99372.91
2022-12-15T18:58:50.269Z,99372.91
2022-12-15T19:01:18.889Z,99372.78
2022-12-15T19:03:47.563Z,99375.22
2022-12-15T19:06:26.154Z,99377.88
2022-12-15T19:08:54.761Z,99376.13
2022-12-15T19:11:31.237Z,99381.09
2022-12-15T19:14:01.255Z,99383.50
2022-12-15T19:16:51.786Z,99380.97
2022-12-15T19:19:37.906Z,99377.38
2022-12-15T19:22:29.961Z,99367.91
2022-12-15T19:24:59.645Z,99366.88
2022-12-15T19:27:29.716Z,99370.31
2022-12-15T19:29:58.675Z,99370.97
2022-12-15T19:32:27.816Z,99369.31
2022-12-15T19:34:56.248Z,99370.19
2022-12-15T19:37:28.696Z,99366.88
2022-12-15T19:39:59.132Z,99365.09
2022-12-15T19:42:32.553Z,99367.63
2022-12-15T19:45:01.410Z,99363.34
2022-12-15T19:47:30.245Z,99363.34
2022-12-15T19:49:58.662Z,99365.91
2022-12-15T19:52:28.359Z,99366.66
2022-12-15T19:54:57.111Z,99364.88
2022-12-15T19:57:26.311Z,99361.44
2022-12-15T19:59:56.059Z,99367.28
2022-12-15T20:02:25.021Z,99361.44
2022-12-15T20:04:53.579Z,99371.38
2022-12-15T20:07:30.956Z,99374.03
2022-12-15T20:09:59.411Z,99371.38
2022-12-15T20:12:28.095Z,99368.94
2022-12-15T20:14:57.973Z,99367.94
2022-12-15T20:17:26.627Z,99370.50
2022-12-15T20:19:55.053Z,99371.25
2022-12-15T20:22:23.703Z,99372.03
2022-12-15T20:24:52.195Z,99379.78
2022-12-15T20:27:21.047Z,99374.69
2022-12-15T20:29:49.873Z,99367.81
2022-12-15T20:32:22.065Z,99361.84
2022-12-15T20:34:50.523Z,99371.13
2022-12-15T20:37:22.859Z,99360.06
2022-12-15T20:39:57.010Z,99365.91
2022-12-15T20:42:26.425Z,99357.44
2022-12-15T20:44:54.975Z,99349.69
2022-12-15T20:47:27.682Z,99354.91
2022-12-15T20:49:56.685Z,99352.22
2022-12-15T20:52:27.608Z,99351.47
2022-12-15T20:54:56.475Z,99356.56
2022-12-15T20:57:24.848Z,99355.66
2022-12-15T20:59:53.870Z,99357.31
2022-12-15T21:02:25.870Z,99364.03
2022-12-15T21:04:55.153Z,99358.72
2022-12-15T21:07:23.916Z,99353.63
2022-12-15T21:09:52.391Z,99357.81
2022-12-15T21:12:24.639Z,99357.81
2022-12-15T21:14:53.581Z,99354.28
2022-12-15T21:17:26.764Z,99359.38
2022-12-15T21:19:55.189Z,99361.91
2022-12-15T21:22:26.591Z,99356.69
2022-12-15T21:24:58.363Z,99365.22
2022-12-15T21:27:26.753Z,99365.09
2022-12-15T21:29:56.254Z,99366.75
2022-12-15T21:32:26.241Z,99373.47
2022-12-15T21:34:54.857Z,99365.75
2022-12-15T21:37:28.606Z,99372.34
2022-12-15T21:39:57.865Z,99377.44
2022-12-15T21:42:27.314Z,99379.09
2022-12-15T21:44:55.886Z,99386.72
2022-12-15T21:47:50.117Z,99385.94
2022-12-15T21:50:20.260Z,99374.69
2022-12-15T21:52:48.811Z,99380.50
2022-12-15T21:55:18.764Z,99378.72
2022-12-15T21:57:47.376Z,99381.41
2022-12-15T22:00:19.399Z,99383.94
2022-12-15T22:02:51.848Z,99386.50
2022-12-15T22:05:24.229Z,99373.66
2022-12-15T22:07:53.546Z,99375.19
2022-12-15T22:10:25.049Z,99372.53
2022-12-15T22:12:59.572Z,99381.00
2022-12-15T22:15:30.731Z,99371.66
2022-12-15T22:18:00.985Z,99385.34
2022-12-15T22:20:29.464Z,99379.13
2022-12-15T22:22:57.941Z,99386.75
2022-12-15T22:25:27.524Z,99383.34
2022-12-15T22:27:56.493Z,99385.75
2022-12-15T22:30:27.531Z,99384.09
2022-12-15T22:32:56.374Z,99389.03
2022-12-15T22:35:27.664Z,99392.47
2022-12-15T22:37:56.508Z,99390.72
2022-12-15T22:40:26.931Z,99395.81
2022-12-15T22:42:58.393Z,99394.03
2022-12-15T22:45:26.985Z,99390.47
2022-12-15T22:47:55.437Z,99411.53
2022-12-15T22:50:27.517Z,99406.09
2022-12-15T22:52:56.593Z,99414.13
2022-12-15T22:55:25.401Z,99408.56
2022-12-15T22:57:59.832Z,99408.41
2022-12-15T23:00:28.503Z,99418.47
2022-12-15T23:02:59.552Z,99409.22
2022-12-15T23:05:29.589Z,99417.69
2022-12-15T23:07:58.267Z,99420.22
2022-12-15T23:10:44.349Z,99421.91
2022-12-15T23:13:13.358Z,99414.03
2022-12-15T23:15:59.754Z,99425.06
2022-12-15T23:18:28.287Z,99412.25
2022-12-15T23:20:58.334Z,99413.13
2022-12-15T23:23:28.101Z,99422.53
2022-12-15T23:25:56.636Z,99416.69
2022-12-15T23:28:26.014Z,99415.81
2022-12-15T23:30:55.867Z,99423.44
2022-12-15T23:33:25.777Z,99431.03
2022-12-15T23:35:55.349Z,99425.06
2022-12-15T23:38:27.745Z,99428.38
2022-12-15T23:40:59.208Z,99426.59
2022-12-15T23:43:30.042Z,99433.59
2022-12-15T23:46:01.474Z,99435.22
2022-12-15T23:48:35.843Z,99434.34
2022-12-15T23:51:06.548Z,99426.59
2022-12-15T23:53:36.932Z,99429.13
2022-12-15T23:56:12.030Z,99428.38
2022-12-15T23:58:42.647Z,99431.66
